createdAt,value
2018-03-28T00:01:40.549Z,99038.25
2018-03-28T00:04:08.961Z,99042.42
2018-03-28T00:06:37.428Z,99048.68
2018-03-28T00:09:06.626Z,99051.11
2018-03-28T00:11:35.034Z,99046.39
2018-03-28T00:14:03.483Z,99050.57
2018-03-28T00:16:31.917Z,99043.59
2018-03-28T00:19:00.326Z,99038.79
2018-03-28T00:21:28.781Z,99036.90
2018-03-28T00:23:57.191Z,99029.77
2018-03-28T00:26:25.603Z,99021.95
2018-03-28T00:28:54.161Z,99023.45
2018-03-28T00:31:22.565Z,99020.95
2018-03-28T00:33:50.978Z,99017.30
2018-03-28T00:36:19.438Z,99009.95
2018-03-28T00:38:47.886Z,99009.36
2018-03-28T00:41:16.294Z,99003.86
2018-03-28T00:43:44.767Z,99003.05
2018-03-28T00:46:13.178Z,98999.44
2018-03-28T00:48:41.586Z,98985.83
2018-03-28T00:51:21.706Z,98988.27
2018-03-28T00:53:50.122Z,98984.09
2018-03-28T00:56:18.548Z,98981.28
2018-03-28T00:58:47.010Z,98979.98
2018-03-28T01:01:15.426Z,98980.01
2018-03-28T01:03:43.857Z,98982.22
2018-03-28T01:06:12.327Z,98978.11
2018-03-28T01:08:40.734Z,98978.94
2018-03-28T01:11:09.157Z,98977.45
2018-03-28T01:13:37.621Z,98974.45
2018-03-28T01:16:06.031Z,98961.06
2018-03-28T01:18:34.445Z,98957.28
2018-03-28T01:21:02.910Z,98951.39
2018-03-28T01:23:31.317Z,98946.78
2018-03-28T01:25:59.742Z,98953.19
2018-03-28T01:28:28.204Z,98950.75
2018-03-28T01:30:56.614Z,98951.73
2018-03-28T01:33:25.026Z,98945.92
2018-03-28T01:35:53.477Z,98943.11
2018-03-28T01:38:21.881Z,98945.11
2018-03-28T01:40:50.289Z,98953.78
2018-03-28T01:43:18.753Z,98946.05
2018-03-28T01:45:47.157Z,98947.46
2018-03-28T01:48:15.566Z,98940.35
2018-03-28T01:50:44.037Z,98943.33
2018-03-28T01:53:12.450Z,98936.14
2018-03-28T01:55:40.857Z,98931.09
2018-03-28T01:58:09.305Z,98933.70
2018-03-28T02:00:37.711Z,98930.17
2018-03-28T02:03:06.154Z,98928.30
2018-03-28T02:05:34.617Z,98923.64
2018-03-28T02:08:03.037Z,98930.10
2018-03-28T02:10:31.441Z,98922.50
2018-03-28T02:12:59.896Z,98919.45
2018-03-28T02:15:28.306Z,98918.95
2018-03-28T02:17:56.730Z,98920.97
2018-03-28T02:20:25.201Z,98916.80
2018-03-28T02:22:53.619Z,98915.34
2018-03-28T02:25:22.025Z,98910.73
2018-03-28T02:27:50.493Z,98906.89
2018-03-28T02:30:18.894Z,98914.25
2018-03-28T02:32:47.314Z,98911.59
2018-03-28T02:35:15.793Z,98909.31
2018-03-28T02:37:44.207Z,98904.97
2018-03-28T02:40:12.617Z,98905.25
2018-03-28T02:42:41.100Z,98903.23
2018-03-28T02:45:09.521Z,98903.80
2018-03-28T02:47:37.934Z,98905.54
2018-03-28T02:50:06.394Z,98907.05
2018-03-28T02:52:34.814Z,98905.19
2018-03-28T02:55:03.222Z,98905.03
2018-03-28T02:57:31.681Z,98899.22
2018-03-28T03:00:00.090Z,98903.14
2018-03-28T03:02:28.501Z,98905.54
2018-03-28T03:04:56.962Z,98900.17
2018-03-28T03:07:25.370Z,98905.75
2018-03-28T03:09:53.803Z,98904.23
2018-03-28T03:12:22.285Z,98901.52
2018-03-28T03:14:50.693Z,98890.62
2018-03-28T03:17:19.102Z,98896.55
2018-03-28T03:19:47.556Z,98902.48
2018-03-28T03:22:15.966Z,98894.78
2018-03-28T03:24:44.378Z,98898.60
2018-03-28T03:27:12.863Z,98889.30
2018-03-28T03:29:41.274Z,98891.43
2018-03-28T03:32:09.690Z,98888.06
2018-03-28T03:34:38.160Z,98888.09
2018-03-28T03:37:06.594Z,98885.94
2018-03-28T03:39:35.014Z,98890.27
2018-03-28T03:42:03.484Z,98886.58
2018-03-28T03:44:31.894Z,98884.68
2018-03-28T03:47:00.305Z,98883.66
2018-03-28T03:49:28.762Z,98883.52
2018-03-28T03:51:57.188Z,98884.20
2018-03-28T03:54:25.597Z,98878.45
2018-03-28T03:56:54.054Z,98878.73
2018-03-28T03:59:22.457Z,98876.81
2018-03-28T04:01:50.888Z,118368.60
2018-03-28T04:04:19.372Z,118368.60
2018-03-28T04:06:47.810Z,118368.60
2018-03-28T04:09:16.249Z,118368.60
2018-03-28T04:11:44.758Z,118368.60
2018-03-28T04:14:13.199Z,118368.60
2018-03-28T04:16:41.646Z,118368.60
2018-03-28T04:19:10.131Z,118368.60
2018-03-28T04:21:38.575Z,118368.60
2018-03-28T04:24:07.010Z,118368.60
2018-03-28T04:26:35.502Z,118368.60
2018-03-28T04:29:03.937Z,118368.60
2018-03-28T04:31:32.378Z,118368.60
2018-03-28T04:34:00.874Z,118368.60
2018-03-28T04:36:29.313Z,118368.60
2018-03-28T04:38:57.758Z,118368.60
2018-03-28T04:41:26.250Z,118368.60
2018-03-28T04:43:54.686Z,118368.60
2018-03-28T04:46:23.160Z,118368.60
2018-03-28T04:48:51.665Z,118368.60
2018-03-28T04:51:20.102Z,118368.60
2018-03-28T04:53:48.620Z,118368.60
2018-03-28T04:56:17.285Z,118368.60
2018-03-28T04:58:45.725Z,118368.60
2018-03-28T05:03:52.529Z,98862.72
2018-03-28T05:06:20.939Z,98857.87
2018-03-28T05:08:49.347Z,98861.44
2018-03-28T05:11:17.809Z,98856.94
2018-03-28T05:13:46.222Z,98856.45
2018-03-28T05:16:14.629Z,98855.27
2018-03-28T05:18:43.082Z,98851.88
2018-03-28T05:21:11.490Z,98853.14
2018-03-28T05:23:39.898Z,98846.16
2018-03-28T05:26:08.354Z,98845.56
2018-03-28T05:28:36.757Z,98847.23
2018-03-28T05:31:05.210Z,98842.06
2018-03-28T05:33:33.691Z,98844.02
2018-03-28T05:36:02.166Z,98842.75
2018-03-28T05:38:30.569Z,98838.00
2018-03-28T05:40:59.030Z,98826.05
2018-03-28T05:43:27.441Z,98820.04
2018-03-28T05:45:55.846Z,98819.48
2018-03-28T05:48:24.294Z,98816.56
2018-03-28T05:50:52.701Z,98812.20
2018-03-28T05:53:21.114Z,98813.42
2018-03-28T05:55:49.606Z,98809.89
2018-03-28T05:58:18.277Z,98811.87
2018-03-28T06:00:46.687Z,98810.95
2018-03-28T06:03:15.156Z,98809.70
2018-03-28T06:05:43.578Z,98816.17
2018-03-28T06:08:11.978Z,98820.41
2018-03-28T06:10:40.525Z,98811.31
2018-03-28T06:13:08.941Z,98816.20
2018-03-28T06:15:37.357Z,98818.23
2018-03-28T06:18:05.809Z,98813.23
2018-03-28T06:20:34.215Z,98811.45
2018-03-28T06:23:02.626Z,98812.41
2018-03-28T06:25:31.074Z,98819.05
2018-03-28T06:27:59.495Z,98821.66
2018-03-28T06:30:27.909Z,98814.27
2018-03-28T06:32:56.373Z,98809.20
2018-03-28T06:35:24.777Z,98813.06
2018-03-28T06:37:53.183Z,98816.34
2018-03-28T06:40:21.644Z,98818.38
2018-03-28T06:42:50.049Z,98814.58
2018-03-28T06:45:18.458Z,98816.34
2018-03-28T06:47:46.929Z,98821.03
2018-03-28T06:50:15.334Z,98823.47
2018-03-28T06:52:43.754Z,98820.11
2018-03-28T06:55:12.222Z,98811.06
2018-03-28T06:57:40.638Z,98812.28
2018-03-28T07:00:09.045Z,98811.82
2018-03-28T07:02:37.493Z,98822.19
2018-03-28T07:05:05.903Z,98814.31
2018-03-28T07:07:34.377Z,98819.63
2018-03-28T07:10:02.814Z,98818.88
2018-03-28T07:12:31.217Z,98821.52
2018-03-28T07:14:59.654Z,98822.30
2018-03-28T07:17:28.114Z,98828.35
2018-03-28T07:19:56.530Z,98821.38
2018-03-28T07:22:24.947Z,98826.59
2018-03-28T07:24:53.435Z,98821.88
2018-03-28T07:27:21.861Z,98828.35
2018-03-28T07:29:50.273Z,98820.56
2018-03-28T07:32:18.986Z,98819.87
2018-03-28T07:34:47.435Z,98814.84
2018-03-28T07:37:15.847Z,98815.44
2018-03-28T07:39:44.299Z,98814.63
2018-03-28T07:42:12.714Z,98808.45
2018-03-28T07:44:41.122Z,98810.70
2018-03-28T07:47:09.572Z,98813.88
2018-03-28T07:49:37.978Z,98813.13
2018-03-28T07:52:06.397Z,98807.42
2018-03-28T07:54:34.874Z,98800.79
2018-03-28T07:57:03.290Z,98799.80
2018-03-28T07:59:31.702Z,98800.69
2018-03-28T08:02:00.164Z,98800.21
2018-03-28T08:04:28.578Z,98792.72
2018-03-28T08:06:56.986Z,98798.20
2018-03-28T08:09:25.449Z,98789.75
2018-03-28T08:11:53.870Z,98801.43
2018-03-28T08:14:22.278Z,98800.45
2018-03-28T08:16:50.761Z,98805.42
2018-03-28T08:19:19.173Z,98799.07
2018-03-28T08:21:47.595Z,98797.56
2018-03-28T08:24:16.060Z,98803.13
2018-03-28T08:26:44.469Z,98808.42
2018-03-28T08:29:12.876Z,98797.92
2018-03-28T08:31:41.338Z,98809.94
2018-03-28T08:34:09.754Z,98807.97
2018-03-28T08:36:38.162Z,98803.92
2018-03-28T08:39:06.653Z,98808.96
2018-03-28T08:41:35.066Z,98810.73
2018-03-28T08:44:03.494Z,98813.69
2018-03-28T08:46:31.961Z,98805.83
2018-03-28T08:49:00.408Z,98802.19
2018-03-28T08:51:28.818Z,98790.83
2018-03-28T08:53:57.277Z,98788.11
2018-03-28T08:56:25.702Z,98798.06
2018-03-28T08:58:54.134Z,98792.34
2018-03-28T09:01:22.617Z,98795.62
2018-03-28T09:03:51.030Z,98798.34
2018-03-28T09:06:19.439Z,98802.50
2018-03-28T09:08:47.945Z,98799.43
2018-03-28T09:11:16.360Z,98800.83
2018-03-28T09:13:44.761Z,98804.06
2018-03-28T09:16:13.222Z,98804.58
2018-03-28T09:18:41.641Z,98806.55
2018-03-28T09:21:10.054Z,98794.28
2018-03-28T09:23:38.525Z,98794.12
2018-03-28T09:26:06.961Z,98788.97
2018-03-28T09:28:35.379Z,98793.84
2018-03-28T09:31:03.857Z,98788.53
2018-03-28T09:33:32.265Z,98786.89
2018-03-28T09:36:00.676Z,98791.80
2018-03-28T09:38:29.134Z,98787.06
2018-03-28T09:40:57.539Z,98784.98
2018-03-28T09:43:25.958Z,98793.95
2018-03-28T09:45:54.502Z,98791.12
2018-03-28T09:48:22.919Z,98786.23
2018-03-28T09:50:51.356Z,98789.31
2018-03-28T09:53:19.815Z,98791.05
2018-03-28T09:55:48.222Z,98785.83
2018-03-28T09:58:16.640Z,98786.48
2018-03-28T10:00:45.999Z,98782.59
2018-03-28T10:03:14.423Z,98783.16
2018-03-28T10:05:42.854Z,98781.42
2018-03-28T10:08:11.331Z,98773.91
2018-03-28T10:10:39.739Z,98777.26
2018-03-28T10:13:08.156Z,98781.06
2018-03-28T10:15:36.624Z,98780.75
2018-03-28T10:18:05.109Z,98778.09
2018-03-28T10:20:33.518Z,98774.92
2018-03-28T10:23:02.035Z,98776.16
2018-03-28T10:25:30.522Z,98770.03
2018-03-28T10:27:59.022Z,98762.45
2018-03-28T10:30:27.486Z,98755.64
2018-03-28T10:32:55.937Z,98759.29
2018-03-28T10:35:24.376Z,98759.15
2018-03-28T10:37:52.837Z,98756.89
2018-03-28T10:40:21.298Z,98749.42
2018-03-28T10:42:49.761Z,98747.81
2018-03-28T10:45:18.238Z,98747.97
2018-03-28T10:47:46.694Z,98751.23
2018-03-28T10:50:15.101Z,98750.95
2018-03-28T10:52:43.590Z,98748.29
2018-03-28T10:55:12.001Z,98749.88
2018-03-28T10:57:40.427Z,98751.39
2018-03-28T11:00:08.905Z,98745.73
2018-03-28T11:02:37.309Z,98751.46
2018-03-28T11:05:05.729Z,98748.55
2018-03-28T11:07:34.195Z,98746.00
2018-03-28T11:10:02.608Z,98737.59
2018-03-28T11:12:31.027Z,98734.23
2018-03-28T11:14:59.518Z,98739.65
2018-03-28T11:17:27.940Z,98742.08
2018-03-28T11:19:56.369Z,98745.37
2018-03-28T11:22:24.823Z,98741.73
2018-03-28T11:24:53.230Z,98741.64
2018-03-28T11:27:21.643Z,98736.97
2018-03-28T11:29:50.113Z,98734.83
2018-03-28T11:32:18.532Z,98730.91
2018-03-28T11:34:46.949Z,98730.08
2018-03-28T11:37:15.418Z,98731.26
2018-03-28T11:39:43.830Z,98733.18
2018-03-28T11:42:12.242Z,98730.95
2018-03-28T11:44:40.693Z,98730.09
2018-03-28T11:47:09.114Z,98730.03
2018-03-28T11:49:37.521Z,98733.50
2018-03-28T11:52:05.977Z,98729.21
2018-03-28T11:54:34.398Z,98727.37
2018-03-28T11:57:02.809Z,98721.96
2018-03-28T11:59:31.262Z,98723.36
2018-03-28T12:01:59.674Z,98727.61
2018-03-28T12:04:28.083Z,98723.78
2018-03-28T12:06:56.550Z,98730.03
2018-03-28T12:09:24.965Z,98720.94
2018-03-28T12:11:53.405Z,98718.52
2018-03-28T12:14:21.883Z,98719.05
2018-03-28T12:16:50.301Z,98709.73
2018-03-28T12:19:18.710Z,98702.84
2018-03-28T12:21:47.166Z,98690.56
2018-03-28T12:24:15.578Z,98699.76
2018-03-28T12:26:43.981Z,98703.38
2018-03-28T12:29:12.622Z,98704.98
2018-03-28T12:31:41.033Z,98696.72
2018-03-28T12:34:09.444Z,98691.73
2018-03-28T12:36:37.897Z,98686.28
2018-03-28T12:39:06.360Z,98685.52
2018-03-28T12:41:34.777Z,98686.99
2018-03-28T12:44:03.225Z,98677.08
2018-03-28T12:46:31.634Z,98668.52
2018-03-28T12:49:00.064Z,98666.22
2018-03-28T12:51:28.529Z,98664.73
2018-03-28T12:53:56.938Z,98661.31
2018-03-28T12:56:25.348Z,98654.01
2018-03-28T12:58:53.805Z,98643.63
2018-03-28T13:01:22.276Z,98645.81
2018-03-28T13:03:50.670Z,98643.48
2018-03-28T13:06:19.148Z,98635.89
2018-03-28T13:08:47.558Z,98632.23
2018-03-28T13:11:15.977Z,98618.29
2018-03-28T13:13:44.434Z,98611.89
2018-03-28T13:16:12.842Z,98607.59
2018-03-28T13:18:41.250Z,98597.41
2018-03-28T13:21:09.698Z,98592.33
2018-03-28T13:23:38.109Z,98585.80
2018-03-28T13:26:06.518Z,98580.67
2018-03-28T13:28:34.981Z,98578.84
2018-03-28T13:31:03.394Z,98581.41
2018-03-28T13:33:31.802Z,98576.39
2018-03-28T13:36:00.258Z,98578.87
2018-03-28T13:38:28.680Z,98572.44
2018-03-28T13:40:57.090Z,98569.72
2018-03-28T13:43:25.557Z,98569.73
2018-03-28T13:45:53.971Z,98575.25
2018-03-28T13:48:22.382Z,98569.19
2018-03-28T13:50:50.926Z,98570.84
2018-03-28T13:53:19.337Z,98564.22
2018-03-28T13:55:47.746Z,98558.37
2018-03-28T13:58:16.217Z,98554.80
2018-03-28T14:00:44.626Z,98548.70
2018-03-28T14:03:13.038Z,98544.30
2018-03-28T14:05:41.531Z,98547.38
2018-03-28T14:08:09.927Z,98546.48
2018-03-28T14:10:38.334Z,98534.17
2018-03-28T14:13:06.782Z,98528.05
2018-03-28T14:15:35.196Z,98523.88
2018-03-28T14:18:03.614Z,98521.91
2018-03-28T14:20:32.067Z,98513.25
2018-03-28T14:23:00.478Z,98506.59
2018-03-28T14:25:28.895Z,98506.81
2018-03-28T14:27:57.348Z,98499.64
2018-03-28T14:30:25.792Z,98490.41
2018-03-28T14:32:54.235Z,98486.20
2018-03-28T14:35:22.715Z,98485.77
2018-03-28T14:37:51.151Z,98479.92
2018-03-28T14:40:19.566Z,98472.01
2018-03-28T14:42:54.590Z,98469.19
2018-03-28T14:45:16.470Z,98463.47
2018-03-28T14:47:44.914Z,98462.63
2018-03-28T14:50:13.372Z,98459.53
2018-03-28T14:52:41.783Z,98450.52
2018-03-28T14:55:10.194Z,98447.33
2018-03-28T14:57:38.658Z,98447.26
2018-03-28T15:00:07.156Z,98445.00
2018-03-28T15:02:35.530Z,98442.62
2018-03-28T15:05:04.010Z,98431.98
2018-03-28T15:07:32.421Z,98424.21
2018-03-28T15:10:00.839Z,98423.39
2018-03-28T15:12:29.304Z,98422.45
2018-03-28T15:14:57.737Z,98418.26
2018-03-28T15:17:26.147Z,98411.38
2018-03-28T15:19:54.601Z,98399.04
2018-03-28T15:22:23.006Z,98390.50
2018-03-28T15:24:51.434Z,98393.42
2018-03-28T15:27:19.908Z,98386.63
2018-03-28T15:29:48.471Z,98376.09
2018-03-28T15:32:16.877Z,98372.92
2018-03-28T15:34:45.351Z,98366.02
2018-03-28T15:37:13.779Z,98368.30
2018-03-28T15:39:42.188Z,98362.94
2018-03-28T15:42:10.639Z,98352.86
2018-03-28T15:44:39.062Z,98344.08
2018-03-28T15:47:07.469Z,98350.16
2018-03-28T15:49:35.931Z,98341.93
2018-03-28T15:52:04.381Z,98342.70
2018-03-28T15:54:32.793Z,98338.82
2018-03-28T15:57:01.243Z,98333.80
2018-03-28T15:59:34.526Z,98333.82
2018-03-28T16:02:02.982Z,98332.08
2018-03-28T16:04:31.401Z,98328.64
2018-03-28T16:06:59.829Z,98327.30
2018-03-28T16:09:28.298Z,98313.39
2018-03-28T16:11:56.733Z,98307.36
2018-03-28T16:14:25.153Z,98308.02
2018-03-28T16:16:53.618Z,98302.41
2018-03-28T16:19:22.037Z,98296.13
2018-03-28T16:21:50.442Z,98290.25
2018-03-28T16:24:18.922Z,98284.05
2018-03-28T16:26:47.339Z,98281.44
2018-03-28T16:29:15.770Z,98269.23
2018-03-28T16:31:44.239Z,98255.24
2018-03-28T16:34:12.654Z,98253.20
2018-03-28T16:36:41.077Z,98243.94
2018-03-28T16:39:09.542Z,98246.81
2018-03-28T16:41:37.964Z,98237.27
2018-03-28T16:44:06.406Z,98230.15
2018-03-28T16:46:34.877Z,98222.04
2018-03-28T16:49:03.293Z,98222.73
2018-03-28T16:51:31.712Z,98217.59
2018-03-28T16:54:00.171Z,98214.27
2018-03-28T16:56:28.579Z,98209.80
2018-03-28T16:58:56.982Z,98206.74
2018-03-28T17:01:25.448Z,98215.63
2018-03-28T17:03:53.853Z,98212.80
2018-03-28T17:06:22.262Z,98206.84
2018-03-28T17:08:50.772Z,98209.27
2018-03-28T17:11:19.182Z,98211.41
2018-03-28T17:13:47.626Z,98205.39
2018-03-28T17:16:16.076Z,98194.95
2018-03-28T17:18:44.498Z,98183.55
2018-03-28T17:21:12.921Z,98195.66
2018-03-28T17:23:41.374Z,98196.25
2018-03-28T17:26:09.789Z,98194.59
2018-03-28T17:28:38.202Z,98189.02
2018-03-28T17:31:06.658Z,98185.14
2018-03-28T17:33:35.073Z,98184.55
2018-03-28T17:36:03.493Z,98193.69
2018-03-28T17:38:31.961Z,98182.72
2018-03-28T17:41:00.373Z,98187.28
2018-03-28T17:43:28.786Z,98188.84
2018-03-28T17:45:57.270Z,98184.61
2018-03-28T17:48:25.676Z,98183.84
2018-03-28T17:50:54.097Z,98180.94
2018-03-28T17:53:22.561Z,98184.13
2018-03-28T17:55:50.993Z,98182.81
2018-03-28T17:58:19.403Z,98177.20
2018-03-28T18:00:47.858Z,98178.70
2018-03-28T18:03:16.275Z,98177.30
2018-03-28T18:05:44.707Z,98171.55
2018-03-28T18:08:13.165Z,98174.23
2018-03-28T18:10:41.582Z,98167.50
2018-03-28T18:13:09.994Z,98167.42
2018-03-28T18:15:38.469Z,98164.95
2018-03-28T18:18:06.883Z,98168.27
2018-03-28T18:20:35.302Z,98162.75
2018-03-28T18:23:03.782Z,98152.12
2018-03-28T18:25:32.194Z,98143.59
2018-03-28T18:28:00.601Z,98144.21
2018-03-28T18:30:29.051Z,98128.11
2018-03-28T18:32:57.490Z,98133.67
2018-03-28T18:35:25.909Z,98122.75
2018-03-28T18:37:54.359Z,98121.24
2018-03-28T18:40:22.769Z,98117.52
2018-03-28T18:42:51.481Z,98117.52
2018-03-28T18:45:19.956Z,98103.82
2018-03-28T18:47:48.378Z,98092.04
2018-03-28T18:50:16.791Z,98087.32
2018-03-28T18:52:45.242Z,98085.10
2018-03-28T18:55:13.658Z,98079.95
2018-03-28T18:57:42.065Z,98071.39
2018-03-28T19:00:10.517Z,98063.17
2018-03-28T19:02:38.933Z,98057.72
2018-03-28T19:05:07.345Z,98055.52
2018-03-28T19:07:35.831Z,98055.30
2018-03-28T19:10:04.250Z,98038.39
2018-03-28T19:12:32.657Z,98032.50
2018-03-28T19:15:01.130Z,98020.13
2018-03-28T19:17:29.538Z,98022.03
2018-03-28T19:19:57.952Z,98021.49
2018-03-28T19:22:26.405Z,98017.36
2018-03-28T19:24:54.810Z,98007.48
2018-03-28T19:27:23.292Z,98014.20
2018-03-28T19:29:51.725Z,98005.69
2018-03-28T19:32:20.130Z,98000.05
2018-03-28T19:34:48.539Z,97998.87
2018-03-28T19:37:17.010Z,97998.58
2018-03-28T19:39:45.413Z,98000.01
2018-03-28T19:42:13.830Z,97995.11
2018-03-28T19:44:42.297Z,97989.91
2018-03-28T19:47:10.713Z,97986.41
2018-03-28T19:49:39.130Z,97983.53
2018-03-28T19:52:07.596Z,97987.52
2018-03-28T19:54:36.007Z,97981.81
2018-03-28T19:57:04.420Z,97976.06
2018-03-28T19:59:32.890Z,97976.32
2018-03-28T20:02:01.309Z,97964.78
2018-03-28T20:04:29.730Z,97969.61
2018-03-28T20:06:58.196Z,97963.57
2018-03-28T20:09:26.614Z,97962.81
2018-03-28T20:11:55.038Z,97957.09
2018-03-28T20:14:23.513Z,97951.71
2018-03-28T20:16:51.921Z,97948.21
2018-03-28T20:19:20.333Z,97942.25
2018-03-28T20:21:48.798Z,97943.75
2018-03-28T20:24:17.209Z,97944.23
2018-03-28T20:26:45.619Z,97937.94
2018-03-28T20:29:14.075Z,97932.30
2018-03-28T20:31:42.481Z,97922.53
2018-03-28T20:34:10.886Z,97925.19
2018-03-28T20:36:39.357Z,97920.55
2018-03-28T20:39:07.789Z,97919.47
2018-03-28T20:41:36.210Z,97913.52
2018-03-28T20:44:04.878Z,97905.94
2018-03-28T20:46:33.286Z,97903.88
2018-03-28T20:49:01.706Z,97908.18
2018-03-28T20:51:30.167Z,97897.16
2018-03-28T20:53:58.591Z,97889.21
2018-03-28T20:56:27.005Z,97886.82
2018-03-28T20:58:55.474Z,97889.21
2018-03-28T21:01:23.902Z,97883.13
2018-03-28T21:03:52.330Z,97877.35
2018-03-28T21:06:20.789Z,97879.08
2018-03-28T21:08:49.214Z,97880.50
2018-03-28T21:11:17.633Z,97860.09
2018-03-28T21:13:46.086Z,97866.37
2018-03-28T21:16:14.522Z,97853.61
2018-03-28T21:18:42.929Z,97850.91
2018-03-28T21:21:11.394Z,97859.66
2018-03-28T21:23:39.805Z,97844.97
2018-03-28T21:26:08.247Z,97842.20
2018-03-28T21:28:36.708Z,97832.01
2018-03-28T21:31:05.149Z,97831.80
2018-03-28T21:33:33.565Z,97836.16
2018-03-28T21:36:02.022Z,97829.71
2018-03-28T21:38:30.431Z,97833.42
2018-03-28T21:40:58.849Z,97833.70
2018-03-28T21:43:27.309Z,97843.28
2018-03-28T21:45:55.717Z,97843.61
2018-03-28T21:48:24.125Z,97835.83
2018-03-28T21:50:52.604Z,97831.86
2018-03-28T21:53:21.014Z,97834.92
2018-03-28T21:55:49.425Z,97834.34
2018-03-28T21:58:17.877Z,97827.28
2018-03-28T22:00:46.285Z,97832.87
2018-03-28T22:03:14.698Z,97832.28
2018-03-28T22:05:43.333Z,97830.41
2018-03-28T22:08:11.744Z,97826.44
2018-03-28T22:10:40.154Z,97818.97
2018-03-28T22:13:08.609Z,97818.19
2018-03-28T22:15:37.026Z,97816.98
2018-03-28T22:18:05.462Z,97818.00
2018-03-28T22:20:33.938Z,97825.08
2018-03-28T22:23:02.357Z,97820.81
2018-03-28T22:25:30.770Z,97819.47
2018-03-28T22:27:59.225Z,97825.97
2018-03-28T22:30:27.640Z,97823.84
2018-03-28T22:32:56.050Z,97831.70
2018-03-28T22:35:24.522Z,97837.66
2018-03-28T22:37:52.922Z,97834.53
2018-03-28T22:40:21.335Z,97834.73
2018-03-28T22:42:49.794Z,97833.58
2018-03-28T22:45:18.201Z,97836.57
2018-03-28T22:47:46.614Z,97837.52
2018-03-28T22:50:15.082Z,97840.83
2018-03-28T22:52:43.498Z,97872.02
2018-03-28T22:55:11.917Z,97876.41
2018-03-28T22:57:40.369Z,97869.70
2018-03-28T23:00:08.832Z,97895.23
2018-03-28T23:02:37.241Z,97901.70
2018-03-28T23:05:05.703Z,97907.16
2018-03-28T23:07:34.101Z,97913.80
2018-03-28T23:10:02.503Z,97923.62
2018-03-28T23:12:30.970Z,97936.45
2018-03-28T23:14:59.389Z,97946.79
2018-03-28T23:17:27.834Z,97957.74
2018-03-28T23:19:56.302Z,97975.06
2018-03-28T23:22:36.434Z,97970.53
2018-03-28T23:25:04.955Z,97984.14
2018-03-28T23:27:33.385Z,97971.14
2018-03-28T23:30:01.814Z,97991.92
2018-03-28T23:32:30.282Z,98015.19
2018-03-28T23:34:58.698Z,98008.08
2018-03-28T23:37:27.118Z,98032.07
2018-03-28T23:39:55.585Z,98035.02
2018-03-28T23:42:24.030Z,98047.81
2018-03-28T23:44:52.430Z,98055.77
2018-03-28T23:47:20.885Z,98068.62
2018-03-28T23:49:49.278Z,98063.20
2018-03-28T23:52:17.686Z,98087.81
2018-03-28T23:54:46.138Z,98094.75
2018-03-28T23:57:14.534Z,98100.45
2018-03-28T23:59:42.939Z,98110.27
